sensor_id;sensor_type;location;lat;lon;timestamp;P1;durP1;ratioP1;P2;durP2;ratioP2
84901;SDS011;75166;51.198;6.010;2024-01-30T00:01:13;15.65;;;7.25;;
84901;SDS011;75166;51.198;6.010;2024-01-30T00:03:38;15.30;;;6.57;;
84901;SDS011;75166;51.198;6.010;2024-01-30T00:06:04;15.60;;;6.75;;
84901;SDS011;75166;51.198;6.010;2024-01-30T00:08:30;15.43;;;7.15;;
84901;SDS011;75166;51.198;6.010;2024-01-30T00:10:55;14.35;;;6.97;;
84901;SDS011;75166;51.198;6.010;2024-01-30T00:13:21;14.88;;;6.78;;
84901;SDS011;75166;51.198;6.010;2024-01-30T00:15:47;15.98;;;7.05;;
84901;SDS011;75166;51.198;6.010;2024-01-30T00:18:13;13.70;;;6.68;;
84901;SDS011;75166;51.198;6.010;2024-01-30T00:20:39;15.82;;;7.00;;
84901;SDS011;75166;51.198;6.010;2024-01-30T00:23:05;15.30;;;7.22;;
84901;SDS011;75166;51.198;6.010;2024-01-30T00:25:31;14.95;;;7.05;;
84901;SDS011;75166;51.198;6.010;2024-01-30T00:27:58;15.15;;;7.47;;
84901;SDS011;75166;51.198;6.010;2024-01-30T00:30:24;15.13;;;6.53;;
84901;SDS011;75166;51.198;6.010;2024-01-30T00:32:49;16.25;;;7.53;;
84901;SDS011;75166;51.198;6.010;2024-01-30T00:35:15;14.13;;;6.47;;
84901;SDS011;75166;51.198;6.010;2024-01-30T00:37:41;14.35;;;6.57;;
84901;SDS011;75166;51.198;6.010;2024-01-30T00:40:06;16.05;;;7.07;;
84901;SDS011;75166;51.198;6.010;2024-01-30T00:42:32;13.95;;;6.95;;
84901;SDS011;75166;51.198;6.010;2024-01-30T00:44:58;15.43;;;7.18;;
84901;SDS011;75166;51.198;6.010;2024-01-30T00:47:24;14.48;;;6.82;;
84901;SDS011;75166;51.198;6.010;2024-01-30T00:49:49;15.65;;;6.97;;
84901;SDS011;75166;51.198;6.010;2024-01-30T00:52:15;15.80;;;7.13;;
84901;SDS011;75166;51.198;6.010;2024-01-30T00:54:40;14.65;;;7.13;;
84901;SDS011;75166;51.198;6.010;2024-01-30T00:57:06;14.27;;;6.57;;
84901;SDS011;75166;51.198;6.010;2024-01-30T00:59:32;15.13;;;7.03;;
84901;SDS011;75166;51.198;6.010;2024-01-30T01:01:58;15.23;;;6.70;;
84901;SDS011;75166;51.198;6.010;2024-01-30T01:04:24;15.07;;;6.75;;
84901;SDS011;75166;51.198;6.010;2024-01-30T01:06:50;13.93;;;6.55;;
84901;SDS011;75166;51.198;6.010;2024-01-30T01:09:16;15.02;;;6.60;;
84901;SDS011;75166;51.198;6.010;2024-01-30T01:11:42;15.27;;;6.75;;
84901;SDS011;75166;51.198;6.010;2024-01-30T01:14:07;13.50;;;6.32;;
84901;SDS011;75166;51.198;6.010;2024-01-30T01:16:33;16.33;;;6.43;;
84901;SDS011;75166;51.198;6.010;2024-01-30T01:18:59;16.27;;;6.57;;
84901;SDS011;75166;51.198;6.010;2024-01-30T01:21:25;14.98;;;6.30;;
84901;SDS011;75166;51.198;6.010;2024-01-30T01:23:51;15.30;;;6.80;;
84901;SDS011;75166;51.198;6.010;2024-01-30T01:26:16;14.80;;;6.50;;
84901;SDS011;75166;51.198;6.010;2024-01-30T01:28:42;15.15;;;6.57;;
84901;SDS011;75166;51.198;6.010;2024-01-30T01:31:07;14.40;;;6.57;;
84901;SDS011;75166;51.198;6.010;2024-01-30T01:33:34;15.45;;;6.82;;
84901;SDS011;75166;51.198;6.010;2024-01-30T01:36:00;15.50;;;6.63;;
84901;SDS011;75166;51.198;6.010;2024-01-30T01:38:27;17.05;;;6.78;;
84901;SDS011;75166;51.198;6.010;2024-01-30T01:40:53;14.70;;;6.40;;
84901;SDS011;75166;51.198;6.010;2024-01-30T01:43:19;14.93;;;6.28;;
84901;SDS011;75166;51.198;6.010;2024-01-30T01:45:45;15.45;;;6.88;;
84901;SDS011;75166;51.198;6.010;2024-01-30T01:48:10;14.30;;;6.32;;
84901;SDS011;75166;51.198;6.010;2024-01-30T01:50:37;14.10;;;6.30;;
84901;SDS011;75166;51.198;6.010;2024-01-30T01:53:03;13.95;;;6.07;;
84901;SDS011;75166;51.198;6.010;2024-01-30T01:55:31;14.68;;;6.10;;
84901;SDS011;75166;51.198;6.010;2024-01-30T01:57:57;13.70;;;6.03;;
84901;SDS011;75166;51.198;6.010;2024-01-30T02:00:23;13.73;;;6.30;;
84901;SDS011;75166;51.198;6.010;2024-01-30T02:02:49;14.02;;;6.35;;
84901;SDS011;75166;51.198;6.010;2024-01-30T02:05:15;14.93;;;6.30;;
84901;SDS011;75166;51.198;6.010;2024-01-30T02:07:42;15.27;;;6.90;;
84901;SDS011;75166;51.198;6.010;2024-01-30T02:10:08;13.52;;;6.30;;
84901;SDS011;75166;51.198;6.010;2024-01-30T02:12:37;14.93;;;6.28;;
84901;SDS011;75166;51.198;6.010;2024-01-30T02:15:03;13.65;;;6.47;;
84901;SDS011;75166;51.198;6.010;2024-01-30T02:17:30;13.27;;;5.97;;
84901;SDS011;75166;51.198;6.010;2024-01-30T02:19:56;14.43;;;6.50;;
84901;SDS011;75166;51.198;6.010;2024-01-30T02:22:22;13.20;;;5.78;;
84901;SDS011;75166;51.198;6.010;2024-01-30T02:24:48;13.05;;;6.18;;
84901;SDS011;75166;51.198;6.010;2024-01-30T02:27:14;14.18;;;6.22;;
84901;SDS011;75166;51.198;6.010;2024-01-30T02:29:40;14.63;;;6.50;;
84901;SDS011;75166;51.198;6.010;2024-01-30T02:32:05;12.98;;;5.93;;
84901;SDS011;75166;51.198;6.010;2024-01-30T02:34:32;13.15;;;6.00;;
84901;SDS011;75166;51.198;6.010;2024-01-30T02:36:58;14.43;;;6.13;;
84901;SDS011;75166;51.198;6.010;2024-01-30T02:39:24;13.00;;;5.55;;
84901;SDS011;75166;51.198;6.010;2024-01-30T02:41:49;13.00;;;5.90;;
84901;SDS011;75166;51.198;6.010;2024-01-30T02:44:15;13.95;;;6.20;;
84901;SDS011;75166;51.198;6.010;2024-01-30T02:46:40;12.63;;;5.45;;
84901;SDS011;75166;51.198;6.010;2024-01-30T02:49:06;12.90;;;6.03;;
84901;SDS011;75166;51.198;6.010;2024-01-30T02:51:32;13.57;;;6.15;;
84901;SDS011;75166;51.198;6.010;2024-01-30T02:53:57;13.93;;;6.32;;
84901;SDS011;75166;51.198;6.010;2024-01-30T02:56:23;14.23;;;6.10;;
84901;SDS011;75166;51.198;6.010;2024-01-30T02:58:48;13.25;;;5.75;;
84901;SDS011;75166;51.198;6.010;2024-01-30T03:01:14;13.77;;;5.47;;
84901;SDS011;75166;51.198;6.010;2024-01-30T03:03:40;12.88;;;5.75;;
84901;SDS011;75166;51.198;6.010;2024-01-30T03:06:05;13.05;;;5.50;;
84901;SDS011;75166;51.198;6.010;2024-01-30T03:08:32;12.75;;;5.47;;
84901;SDS011;75166;51.198;6.010;2024-01-30T03:10:57;12.73;;;5.68;;
84901;SDS011;75166;51.198;6.010;2024-01-30T03:13:23;13.50;;;5.80;;
84901;SDS011;75166;51.198;6.010;2024-01-30T03:15:50;13.70;;;5.82;;
84901;SDS011;75166;51.198;6.010;2024-01-30T03:18:15;13.98;;;5.70;;
84901;SDS011;75166;51.198;6.010;2024-01-30T03:20:41;13.43;;;5.80;;
84901;SDS011;75166;51.198;6.010;2024-01-30T03:23:07;12.88;;;5.43;;
84901;SDS011;75166;51.198;6.010;2024-01-30T03:25:32;13.43;;;5.50;;
84901;SDS011;75166;51.198;6.010;2024-01-30T03:27:58;14.75;;;5.90;;
84901;SDS011;75166;51.198;6.010;2024-01-30T03:30:23;12.15;;;5.10;;
84901;SDS011;75166;51.198;6.010;2024-01-30T03:32:49;13.45;;;5.63;;
84901;SDS011;75166;51.198;6.010;2024-01-30T03:35:15;12.43;;;5.57;;
84901;SDS011;75166;51.198;6.010;2024-01-30T03:37:41;13.70;;;5.18;;
84901;SDS011;75166;51.198;6.010;2024-01-30T03:40:08;12.65;;;5.35;;
84901;SDS011;75166;51.198;6.010;2024-01-30T03:42:33;12.55;;;5.38;;
84901;SDS011;75166;51.198;6.010;2024-01-30T03:44:59;14.02;;;5.82;;
84901;SDS011;75166;51.198;6.010;2024-01-30T03:47:25;12.32;;;5.32;;
84901;SDS011;75166;51.198;6.010;2024-01-30T03:49:50;12.60;;;5.22;;
84901;SDS011;75166;51.198;6.010;2024-01-30T03:52:16;13.25;;;4.97;;
84901;SDS011;75166;51.198;6.010;2024-01-30T03:54:42;12.20;;;4.88;;
84901;SDS011;75166;51.198;6.010;2024-01-30T03:57:07;12.35;;;4.93;;
84901;SDS011;75166;51.198;6.010;2024-01-30T03:59:33;13.23;;;5.18;;
84901;SDS011;75166;51.198;6.010;2024-01-30T04:01:59;12.65;;;5.13;;
84901;SDS011;75166;51.198;6.010;2024-01-30T04:04:25;11.18;;;4.70;;
84901;SDS011;75166;51.198;6.010;2024-01-30T04:06:50;12.18;;;4.82;;
84901;SDS011;75166;51.198;6.010;2024-01-30T04:09:16;12.63;;;5.10;;
84901;SDS011;75166;51.198;6.010;2024-01-30T04:11:41;11.90;;;5.13;;
84901;SDS011;75166;51.198;6.010;2024-01-30T04:14:08;12.10;;;4.50;;
84901;SDS011;75166;51.198;6.010;2024-01-30T04:16:34;11.50;;;4.60;;
84901;SDS011;75166;51.198;6.010;2024-01-30T04:18:59;12.40;;;5.22;;
84901;SDS011;75166;51.198;6.010;2024-01-30T04:21:25;11.68;;;4.72;;
84901;SDS011;75166;51.198;6.010;2024-01-30T04:23:51;11.18;;;4.80;;
84901;SDS011;75166;51.198;6.010;2024-01-30T04:26:17;14.23;;;5.35;;
84901;SDS011;75166;51.198;6.010;2024-01-30T04:28:45;13.82;;;4.80;;
84901;SDS011;75166;51.198;6.010;2024-01-30T04:31:11;12.00;;;4.65;;
84901;SDS011;75166;51.198;6.010;2024-01-30T04:33:37;12.68;;;4.82;;
84901;SDS011;75166;51.198;6.010;2024-01-30T04:36:03;13.20;;;5.15;;
84901;SDS011;75166;51.198;6.010;2024-01-30T04:38:29;12.27;;;4.90;;
84901;SDS011;75166;51.198;6.010;2024-01-30T04:40:56;12.10;;;4.55;;
84901;SDS011;75166;51.198;6.010;2024-01-30T04:43:21;11.10;;;4.47;;
84901;SDS011;75166;51.198;6.010;2024-01-30T04:45:47;11.73;;;4.70;;
84901;SDS011;75166;51.198;6.010;2024-01-30T04:48:13;11.10;;;4.53;;
84901;SDS011;75166;51.198;6.010;2024-01-30T04:50:39;11.80;;;4.57;;
84901;SDS011;75166;51.198;6.010;2024-01-30T04:53:05;13.38;;;4.50;;
84901;SDS011;75166;51.198;6.010;2024-01-30T04:55:30;12.98;;;4.70;;
84901;SDS011;75166;51.198;6.010;2024-01-30T04:57:56;11.80;;;4.78;;
84901;SDS011;75166;51.198;6.010;2024-01-30T05:00:21;11.52;;;4.65;;
84901;SDS011;75166;51.198;6.010;2024-01-30T05:02:47;11.63;;;4.32;;
84901;SDS011;75166;51.198;6.010;2024-01-30T05:05:12;11.30;;;4.55;;
84901;SDS011;75166;51.198;6.010;2024-01-30T05:07:38;12.57;;;4.70;;
84901;SDS011;75166;51.198;6.010;2024-01-30T05:10:06;11.38;;;4.63;;
84901;SDS011;75166;51.198;6.010;2024-01-30T05:12:33;11.18;;;4.57;;
84901;SDS011;75166;51.198;6.010;2024-01-30T05:14:59;11.85;;;4.50;;
84901;SDS011;75166;51.198;6.010;2024-01-30T05:17:24;10.98;;;4.40;;
84901;SDS011;75166;51.198;6.010;2024-01-30T05:19:50;11.68;;;4.38;;
84901;SDS011;75166;51.198;6.010;2024-01-30T05:22:16;11.27;;;4.05;;
84901;SDS011;75166;51.198;6.010;2024-01-30T05:24:43;11.07;;;4.00;;
84901;SDS011;75166;51.198;6.010;2024-01-30T05:27:09;11.32;;;4.45;;
84901;SDS011;75166;51.198;6.010;2024-01-30T05:29:35;12.68;;;4.53;;
84901;SDS011;75166;51.198;6.010;2024-01-30T05:32:01;10.55;;;4.15;;
84901;SDS011;75166;51.198;6.010;2024-01-30T05:34:27;11.70;;;4.43;;
84901;SDS011;75166;51.198;6.010;2024-01-30T05:36:53;11.10;;;4.00;;
84901;SDS011;75166;51.198;6.010;2024-01-30T05:39:19;10.70;;;4.65;;
84901;SDS011;75166;51.198;6.010;2024-01-30T05:41:45;11.07;;;3.95;;
84901;SDS011;75166;51.198;6.010;2024-01-30T05:44:10;10.75;;;4.10;;
84901;SDS011;75166;51.198;6.010;2024-01-30T05:46:36;11.07;;;4.32;;
84901;SDS011;75166;51.198;6.010;2024-01-30T05:49:01;10.13;;;4.10;;
84901;SDS011;75166;51.198;6.010;2024-01-30T05:51:27;11.10;;;4.30;;
84901;SDS011;75166;51.198;6.010;2024-01-30T05:53:53;10.90;;;3.85;;
84901;SDS011;75166;51.198;6.010;2024-01-30T05:56:19;11.52;;;4.03;;
84901;SDS011;75166;51.198;6.010;2024-01-30T05:58:44;11.80;;;4.43;;
84901;SDS011;75166;51.198;6.010;2024-01-30T06:01:10;10.95;;;4.13;;
84901;SDS011;75166;51.198;6.010;2024-01-30T06:03:36;10.25;;;3.80;;
84901;SDS011;75166;51.198;6.010;2024-01-30T06:06:02;10.93;;;4.32;;
84901;SDS011;75166;51.198;6.010;2024-01-30T06:08:27;10.55;;;3.95;;
84901;SDS011;75166;51.198;6.010;2024-01-30T06:10:53;10.25;;;4.03;;
84901;SDS011;75166;51.198;6.010;2024-01-30T06:13:19;10.07;;;4.03;;
84901;SDS011;75166;51.198;6.010;2024-01-30T06:15:45;10.63;;;4.13;;
84901;SDS011;75166;51.198;6.010;2024-01-30T06:18:11;10.38;;;3.97;;
84901;SDS011;75166;51.198;6.010;2024-01-30T06:20:37;10.77;;;4.10;;
84901;SDS011;75166;51.198;6.010;2024-01-30T06:23:02;11.38;;;4.25;;
84901;SDS011;75166;51.198;6.010;2024-01-30T06:25:28;10.30;;;3.70;;
84901;SDS011;75166;51.198;6.010;2024-01-30T06:27:54;11.30;;;3.97;;
84901;SDS011;75166;51.198;6.010;2024-01-30T06:30:19;9.90;;;3.90;;
84901;SDS011;75166;51.198;6.010;2024-01-30T06:32:45;12.25;;;4.07;;
84901;SDS011;75166;51.198;6.010;2024-01-30T06:35:10;10.82;;;4.05;;
84901;SDS011;75166;51.198;6.010;2024-01-30T06:37:36;11.55;;;3.90;;
84901;SDS011;75166;51.198;6.010;2024-01-30T06:40:02;10.60;;;3.85;;
84901;SDS011;75166;51.198;6.010;2024-01-30T06:42:29;11.25;;;4.20;;
84901;SDS011;75166;51.198;6.010;2024-01-30T06:44:55;10.15;;;4.03;;
84901;SDS011;75166;51.198;6.010;2024-01-30T06:47:21;10.13;;;4.20;;
84901;SDS011;75166;51.198;6.010;2024-01-30T06:49:46;11.10;;;4.05;;
84901;SDS011;75166;51.198;6.010;2024-01-30T06:52:12;11.02;;;4.10;;
84901;SDS011;75166;51.198;6.010;2024-01-30T06:54:38;11.15;;;4.22;;
84901;SDS011;75166;51.198;6.010;2024-01-30T06:57:04;11.85;;;4.10;;
84901;SDS011;75166;51.198;6.010;2024-01-30T06:59:34;11.98;;;4.03;;
84901;SDS011;75166;51.198;6.010;2024-01-30T07:01:59;11.50;;;4.38;;
84901;SDS011;75166;51.198;6.010;2024-01-30T07:04:25;12.60;;;4.82;;
84901;SDS011;75166;51.198;6.010;2024-01-30T07:06:51;11.93;;;4.57;;
84901;SDS011;75166;51.198;6.010;2024-01-30T07:09:18;12.23;;;5.00;;
84901;SDS011;75166;51.198;6.010;2024-01-30T07:11:44;12.18;;;4.68;;
84901;SDS011;75166;51.198;6.010;2024-01-30T07:14:10;12.95;;;4.63;;
84901;SDS011;75166;51.198;6.010;2024-01-30T07:16:35;11.55;;;4.97;;
84901;SDS011;75166;51.198;6.010;2024-01-30T07:19:01;13.23;;;5.10;;
84901;SDS011;75166;51.198;6.010;2024-01-30T07:21:27;12.02;;;4.60;;
84901;SDS011;75166;51.198;6.010;2024-01-30T07:23:56;13.27;;;4.70;;
84901;SDS011;75166;51.198;6.010;2024-01-30T07:26:22;12.18;;;4.80;;
84901;SDS011;75166;51.198;6.010;2024-01-30T07:28:48;11.95;;;4.88;;
84901;SDS011;75166;51.198;6.010;2024-01-30T07:31:15;13.63;;;5.07;;
84901;SDS011;75166;51.198;6.010;2024-01-30T07:33:40;12.88;;;4.90;;
84901;SDS011;75166;51.198;6.010;2024-01-30T07:36:06;12.27;;;5.50;;
84901;SDS011;75166;51.198;6.010;2024-01-30T07:38:32;12.45;;;4.90;;
84901;SDS011;75166;51.198;6.010;2024-01-30T07:40:57;12.77;;;5.22;;
84901;SDS011;75166;51.198;6.010;2024-01-30T07:43:23;12.18;;;4.90;;
84901;SDS011;75166;51.198;6.010;2024-01-30T07:45:49;12.10;;;4.63;;
84901;SDS011;75166;51.198;6.010;2024-01-30T07:48:14;12.02;;;4.63;;
84901;SDS011;75166;51.198;6.010;2024-01-30T07:50:40;12.35;;;4.97;;
84901;SDS011;75166;51.198;6.010;2024-01-30T07:53:06;12.35;;;5.05;;
84901;SDS011;75166;51.198;6.010;2024-01-30T07:55:32;12.40;;;5.00;;
84901;SDS011;75166;51.198;6.010;2024-01-30T07:57:58;12.30;;;4.88;;
84901;SDS011;75166;51.198;6.010;2024-01-30T08:00:26;13.27;;;5.20;;
84901;SDS011;75166;51.198;6.010;2024-01-30T08:02:54;12.45;;;4.93;;
84901;SDS011;75166;51.198;6.010;2024-01-30T08:05:20;13.23;;;5.13;;
84901;SDS011;75166;51.198;6.010;2024-01-30T08:07:47;13.10;;;5.40;;
84901;SDS011;75166;51.198;6.010;2024-01-30T08:10:14;13.73;;;5.25;;
84901;SDS011;75166;51.198;6.010;2024-01-30T08:12:40;13.25;;;5.25;;
84901;SDS011;75166;51.198;6.010;2024-01-30T08:15:06;13.27;;;5.32;;
84901;SDS011;75166;51.198;6.010;2024-01-30T08:17:32;13.95;;;5.53;;
84901;SDS011;75166;51.198;6.010;2024-01-30T08:19:58;14.60;;;5.95;;
84901;SDS011;75166;51.198;6.010;2024-01-30T08:22:24;14.48;;;5.57;;
84901;SDS011;75166;51.198;6.010;2024-01-30T08:24:49;13.82;;;5.32;;
84901;SDS011;75166;51.198;6.010;2024-01-30T08:27:15;13.35;;;5.20;;
84901;SDS011;75166;51.198;6.010;2024-01-30T08:29:41;12.63;;;5.22;;
84901;SDS011;75166;51.198;6.010;2024-01-30T08:32:06;13.50;;;5.20;;
84901;SDS011;75166;51.198;6.010;2024-01-30T08:34:32;13.23;;;5.40;;
84901;SDS011;75166;51.198;6.010;2024-01-30T08:36:58;13.63;;;5.22;;
84901;SDS011;75166;51.198;6.010;2024-01-30T08:39:24;15.50;;;5.35;;
84901;SDS011;75166;51.198;6.010;2024-01-30T08:41:50;13.68;;;5.30;;
84901;SDS011;75166;51.198;6.010;2024-01-30T08:44:16;12.65;;;5.38;;
84901;SDS011;75166;51.198;6.010;2024-01-30T08:46:43;13.50;;;5.25;;
84901;SDS011;75166;51.198;6.010;2024-01-30T08:49:10;12.20;;;4.78;;
84901;SDS011;75166;51.198;6.010;2024-01-30T08:51:38;12.48;;;4.93;;
84901;SDS011;75166;51.198;6.010;2024-01-30T08:54:04;14.10;;;5.07;;
84901;SDS011;75166;51.198;6.010;2024-01-30T08:56:29;12.23;;;4.80;;
84901;SDS011;75166;51.198;6.010;2024-01-30T08:58:55;12.45;;;5.07;;
84901;SDS011;75166;51.198;6.010;2024-01-30T09:01:20;13.13;;;5.30;;
84901;SDS011;75166;51.198;6.010;2024-01-30T09:03:46;13.43;;;5.70;;
84901;SDS011;75166;51.198;6.010;2024-01-30T09:06:12;13.48;;;5.30;;
84901;SDS011;75166;51.198;6.010;2024-01-30T09:08:38;13.95;;;6.35;;
84901;SDS011;75166;51.198;6.010;2024-01-30T09:11:13;12.85;;;5.50;;
84901;SDS011;75166;51.198;6.010;2024-01-30T09:13:41;13.95;;;5.93;;
84901;SDS011;75166;51.198;6.010;2024-01-30T09:16:07;13.23;;;5.43;;
84901;SDS011;75166;51.198;6.010;2024-01-30T09:18:32;14.63;;;6.13;;
84901;SDS011;75166;51.198;6.010;2024-01-30T09:20:58;12.85;;;5.20;;
84901;SDS011;75166;51.198;6.010;2024-01-30T09:23:24;12.60;;;5.40;;
84901;SDS011;75166;51.198;6.010;2024-01-30T09:25:50;13.88;;;5.50;;
84901;SDS011;75166;51.198;6.010;2024-01-30T09:28:16;13.27;;;5.35;;
84901;SDS011;75166;51.198;6.010;2024-01-30T09:30:42;15.25;;;5.40;;
84901;SDS011;75166;51.198;6.010;2024-01-30T09:33:08;12.77;;;5.32;;
84901;SDS011;75166;51.198;6.010;2024-01-30T09:35:33;13.32;;;5.75;;
84901;SDS011;75166;51.198;6.010;2024-01-30T09:38:00;14.07;;;5.93;;
84901;SDS011;75166;51.198;6.010;2024-01-30T09:40:25;14.57;;;6.07;;
84901;SDS011;75166;51.198;6.010;2024-01-30T09:42:51;14.93;;;6.15;;
84901;SDS011;75166;51.198;6.010;2024-01-30T09:45:20;15.15;;;5.88;;
84901;SDS011;75166;51.198;6.010;2024-01-30T09:47:50;13.88;;;5.68;;
84901;SDS011;75166;51.198;6.010;2024-01-30T09:50:16;13.20;;;5.22;;
84901;SDS011;75166;51.198;6.010;2024-01-30T09:52:45;13.77;;;5.50;;
84901;SDS011;75166;51.198;6.010;2024-01-30T09:55:11;13.25;;;5.80;;
84901;SDS011;75166;51.198;6.010;2024-01-30T09:57:37;14.75;;;5.85;;
84901;SDS011;75166;51.198;6.010;2024-01-30T10:00:04;14.25;;;5.68;;
84901;SDS011;75166;51.198;6.010;2024-01-30T10:02:33;15.27;;;5.72;;
84901;SDS011;75166;51.198;6.010;2024-01-30T10:04:59;14.13;;;6.15;;
84901;SDS011;75166;51.198;6.010;2024-01-30T10:07:25;13.63;;;5.20;;
84901;SDS011;75166;51.198;6.010;2024-01-30T10:09:52;14.52;;;5.70;;
84901;SDS011;75166;51.198;6.010;2024-01-30T10:12:18;13.90;;;5.80;;
84901;SDS011;75166;51.198;6.010;2024-01-30T10:14:44;14.05;;;5.50;;
84901;SDS011;75166;51.198;6.010;2024-01-30T10:17:10;15.23;;;5.53;;
84901;SDS011;75166;51.198;6.010;2024-01-30T10:19:40;15.00;;;5.97;;
84901;SDS011;75166;51.198;6.010;2024-01-30T10:22:06;13.40;;;5.72;;
84901;SDS011;75166;51.198;6.010;2024-01-30T10:24:35;15.70;;;5.55;;
84901;SDS011;75166;51.198;6.010;2024-01-30T10:27:02;13.10;;;5.60;;
84901;SDS011;75166;51.198;6.010;2024-01-30T10:29:28;14.27;;;5.43;;
84901;SDS011;75166;51.198;6.010;2024-01-30T10:32:00;14.93;;;5.78;;
84901;SDS011;75166;51.198;6.010;2024-01-30T10:34:28;13.05;;;5.30;;
84901;SDS011;75166;51.198;6.010;2024-01-30T10:37:07;15.77;;;5.95;;
84901;SDS011;75166;51.198;6.010;2024-01-30T10:39:43;16.52;;;6.13;;
84901;SDS011;75166;51.198;6.010;2024-01-30T10:42:13;16.27;;;6.32;;
84901;SDS011;75166;51.198;6.010;2024-01-30T10:44:46;14.75;;;5.80;;
84901;SDS011;75166;51.198;6.010;2024-01-30T10:47:25;14.75;;;5.88;;
84901;SDS011;75166;51.198;6.010;2024-01-30T10:49:55;14.82;;;5.45;;
84901;SDS011;75166;51.198;6.010;2024-01-30T10:52:22;15.38;;;6.13;;
84901;SDS011;75166;51.198;6.010;2024-01-30T10:54:51;15.32;;;5.72;;
84901;SDS011;75166;51.198;6.010;2024-01-30T10:57:17;15.02;;;5.85;;
84901;SDS011;75166;51.198;6.010;2024-01-30T10:59:43;12.95;;;5.32;;
84901;SDS011;75166;51.198;6.010;2024-01-30T11:02:10;14.60;;;6.10;;
84901;SDS011;75166;51.198;6.010;2024-01-30T11:04:42;13.68;;;5.70;;
84901;SDS011;75166;51.198;6.010;2024-01-30T11:07:17;15.20;;;5.82;;
84901;SDS011;75166;51.198;6.010;2024-01-30T11:10:18;14.35;;;5.70;;
84901;SDS011;75166;51.198;6.010;2024-01-30T11:12:40;14.43;;;5.38;;
84901;SDS011;75166;51.198;6.010;2024-01-30T11:20:16;13.15;;;5.90;;
84901;SDS011;75166;51.198;6.010;2024-01-30T11:23:10;13.80;;;5.60;;
84901;SDS011;75166;51.198;6.010;2024-01-30T11:25:37;15.02;;;5.72;;
84901;SDS011;75166;51.198;6.010;2024-01-30T11:28:03;17.25;;;6.70;;
84901;SDS011;75166;51.198;6.010;2024-01-30T11:30:29;16.98;;;5.47;;
84901;SDS011;75166;51.198;6.010;2024-01-30T11:35:32;15.57;;;5.25;;
84901;SDS011;75166;51.198;6.010;2024-01-30T11:37:59;15.23;;;6.30;;
84901;SDS011;75166;51.198;6.010;2024-01-30T11:40:29;16.77;;;5.53;;
84901;SDS011;75166;51.198;6.010;2024-01-30T11:42:56;14.75;;;5.68;;
84901;SDS011;75166;51.198;6.010;2024-01-30T11:45:23;17.17;;;6.00;;
84901;SDS011;75166;51.198;6.010;2024-01-30T11:47:49;15.68;;;5.95;;
84901;SDS011;75166;51.198;6.010;2024-01-30T11:50:15;18.77;;;6.30;;
84901;SDS011;75166;51.198;6.010;2024-01-30T11:52:41;15.88;;;6.35;;
84901;SDS011;75166;51.198;6.010;2024-01-30T11:55:08;14.13;;;6.05;;
84901;SDS011;75166;51.198;6.010;2024-01-30T11:57:34;17.10;;;5.75;;
84901;SDS011;75166;51.198;6.010;2024-01-30T12:00:02;16.33;;;6.30;;
84901;SDS011;75166;51.198;6.010;2024-01-30T12:02:38;15.02;;;5.63;;
84901;SDS011;75166;51.198;6.010;2024-01-30T12:05:07;15.95;;;6.28;;
84901;SDS011;75166;51.198;6.010;2024-01-30T12:07:33;17.40;;;6.88;;
84901;SDS011;75166;51.198;6.010;2024-01-30T12:09:59;17.83;;;6.30;;
84901;SDS011;75166;51.198;6.010;2024-01-30T12:12:25;16.20;;;6.60;;
84901;SDS011;75166;51.198;6.010;2024-01-30T12:14:51;18.02;;;7.22;;
84901;SDS011;75166;51.198;6.010;2024-01-30T12:17:50;16.35;;;6.20;;
84901;SDS011;75166;51.198;6.010;2024-01-30T12:20:13;17.73;;;5.93;;
84901;SDS011;75166;51.198;6.010;2024-01-30T12:22:40;15.75;;;6.22;;
84901;SDS011;75166;51.198;6.010;2024-01-30T12:25:08;16.67;;;6.85;;
84901;SDS011;75166;51.198;6.010;2024-01-30T12:27:34;15.07;;;6.03;;
84901;SDS011;75166;51.198;6.010;2024-01-30T12:30:05;15.55;;;6.10;;
84901;SDS011;75166;51.198;6.010;2024-01-30T12:32:35;16.48;;;5.97;;
84901;SDS011;75166;51.198;6.010;2024-01-30T12:35:11;14.43;;;5.82;;
84901;SDS011;75166;51.198;6.010;2024-01-30T12:37:38;15.50;;;6.20;;
84901;SDS011;75166;51.198;6.010;2024-01-30T12:40:05;14.70;;;5.85;;
84901;SDS011;75166;51.198;6.010;2024-01-30T12:42:32;15.55;;;5.93;;
84901;SDS011;75166;51.198;6.010;2024-01-30T12:44:58;14.93;;;6.18;;
84901;SDS011;75166;51.198;6.010;2024-01-30T12:47:24;14.50;;;5.88;;
84901;SDS011;75166;51.198;6.010;2024-01-30T12:49:51;16.75;;;6.40;;
84901;SDS011;75166;51.198;6.010;2024-01-30T12:52:18;15.32;;;6.00;;
84901;SDS011;75166;51.198;6.010;2024-01-30T12:54:45;19.30;;;6.43;;
84901;SDS011;75166;51.198;6.010;2024-01-30T12:57:11;15.53;;;6.00;;
84901;SDS011;75166;51.198;6.010;2024-01-30T12:59:36;14.88;;;5.47;;
84901;SDS011;75166;51.198;6.010;2024-01-30T13:02:02;15.00;;;6.10;;
84901;SDS011;75166;51.198;6.010;2024-01-30T13:04:28;14.05;;;5.85;;
84901;SDS011;75166;51.198;6.010;2024-01-30T13:06:54;14.95;;;5.93;;
84901;SDS011;75166;51.198;6.010;2024-01-30T13:09:20;14.77;;;6.30;;
84901;SDS011;75166;51.198;6.010;2024-01-30T13:11:46;15.40;;;6.30;;
84901;SDS011;75166;51.198;6.010;2024-01-30T13:14:11;14.77;;;6.18;;
84901;SDS011;75166;51.198;6.010;2024-01-30T13:16:37;14.15;;;5.95;;
84901;SDS011;75166;51.198;6.010;2024-01-30T13:19:03;15.10;;;6.38;;
84901;SDS011;75166;51.198;6.010;2024-01-30T13:21:30;15.40;;;6.03;;
84901;SDS011;75166;51.198;6.010;2024-01-30T13:23:55;15.88;;;5.93;;
84901;SDS011;75166;51.198;6.010;2024-01-30T13:26:21;13.65;;;5.90;;
84901;SDS011;75166;51.198;6.010;2024-01-30T13:28:47;16.10;;;5.95;;
84901;SDS011;75166;51.198;6.010;2024-01-30T13:31:13;15.93;;;6.45;;
84901;SDS011;75166;51.198;6.010;2024-01-30T13:33:39;14.63;;;5.88;;
84901;SDS011;75166;51.198;6.010;2024-01-30T13:36:06;13.32;;;5.70;;
84901;SDS011;75166;51.198;6.010;2024-01-30T13:38:32;16.10;;;6.15;;
84901;SDS011;75166;51.198;6.010;2024-01-30T13:40:58;15.60;;;6.40;;
84901;SDS011;75166;51.198;6.010;2024-01-30T13:43:24;16.05;;;6.32;;
84901;SDS011;75166;51.198;6.010;2024-01-30T13:45:50;14.93;;;6.10;;
84901;SDS011;75166;51.198;6.010;2024-01-30T13:48:16;16.90;;;6.22;;
84901;SDS011;75166;51.198;6.010;2024-01-30T13:50:41;14.02;;;5.75;;
84901;SDS011;75166;51.198;6.010;2024-01-30T13:53:07;14.10;;;5.85;;
84901;SDS011;75166;51.198;6.010;2024-01-30T13:55:33;14.32;;;6.20;;
84901;SDS011;75166;51.198;6.010;2024-01-30T13:57:59;14.93;;;5.88;;
84901;SDS011;75166;51.198;6.010;2024-01-30T14:00:26;13.30;;;5.40;;
84901;SDS011;75166;51.198;6.010;2024-01-30T14:02:52;14.25;;;5.50;;
84901;SDS011;75166;51.198;6.010;2024-01-30T14:05:20;15.18;;;5.20;;
84901;SDS011;75166;51.198;6.010;2024-01-30T14:07:46;12.70;;;5.05;;
84901;SDS011;75166;51.198;6.010;2024-01-30T14:10:12;14.57;;;4.75;;
84901;SDS011;75166;51.198;6.010;2024-01-30T14:12:38;12.25;;;4.53;;
84901;SDS011;75166;51.198;6.010;2024-01-30T14:15:04;12.35;;;4.50;;
84901;SDS011;75166;51.198;6.010;2024-01-30T14:17:30;12.50;;;4.50;;
84901;SDS011;75166;51.198;6.010;2024-01-30T14:19:55;11.68;;;4.30;;
84901;SDS011;75166;51.198;6.010;2024-01-30T14:22:21;11.80;;;4.43;;
84901;SDS011;75166;51.198;6.010;2024-01-30T14:24:47;12.23;;;4.40;;
84901;SDS011;75166;51.198;6.010;2024-01-30T14:27:12;12.40;;;3.92;;
84901;SDS011;75166;51.198;6.010;2024-01-30T14:29:38;10.38;;;3.72;;
84901;SDS011;75166;51.198;6.010;2024-01-30T14:32:04;13.70;;;3.92;;
84901;SDS011;75166;51.198;6.010;2024-01-30T14:34:30;10.95;;;3.90;;
84901;SDS011;75166;51.198;6.010;2024-01-30T14:36:56;10.68;;;3.53;;